createdAt,value
2017-08-18T00:00:33.659Z,0
2017-08-18T00:01:34.601Z,0
2017-08-18T00:02:34.625Z,0
2017-08-18T00:03:43.081Z,0
2017-08-18T00:04:34.714Z,0
2017-08-18T00:05:34.435Z,0
2017-08-18T00:06:34.749Z,0
2017-08-18T00:07:34.869Z,0
2017-08-18T00:08:34.833Z,0
2017-08-18T00:09:34.904Z,0
2017-08-18T00:10:34.899Z,0
2017-08-18T00:11:35.072Z,0
2017-08-18T00:12:35.416Z,0
2017-08-18T00:13:35.607Z,0
2017-08-18T00:14:35.524Z,0
2017-08-18T00:15:35.204Z,0
2017-08-18T00:16:35.258Z,0
2017-08-18T00:17:35.011Z,0
2017-08-18T00:18:35.664Z,0
2017-08-18T00:19:35.699Z,0
2017-08-18T00:20:36.052Z,0
2017-08-18T00:21:36.073Z,0
2017-08-18T00:22:36.140Z,0
2017-08-18T00:23:36.172Z,0
2017-08-18T00:24:35.894Z,0
2017-08-18T00:25:36.254Z,0
2017-08-18T00:26:36.275Z,0
2017-08-18T00:27:36.309Z,0
2017-08-18T00:28:36.029Z,0
2017-08-18T00:29:36.083Z,0
2017-08-18T00:30:36.094Z,0
2017-08-18T00:31:36.447Z,0
2017-08-18T00:32:37.100Z,0
2017-08-18T00:33:37.446Z,0
2017-08-18T00:34:37.170Z,0
2017-08-18T00:35:36.864Z,0
2017-08-18T00:36:37.835Z,0
2017-08-18T00:37:38.202Z,0
2017-08-18T00:38:38.205Z,0
2017-08-18T00:39:38.236Z,0
2017-08-18T00:40:37.953Z,0
2017-08-18T00:41:38.004Z,0
2017-08-18T00:42:38.329Z,0
2017-08-18T00:43:38.759Z,0
2017-08-18T00:44:38.790Z,0
2017-08-18T00:45:38.559Z,0
2017-08-18T00:46:38.883Z,0
2017-08-18T00:47:38.895Z,0
2017-08-18T00:48:38.932Z,0
2017-08-18T00:49:38.970Z,0
2017-08-18T00:50:38.705Z,0
2017-08-18T00:51:39.038Z,0
2017-08-18T00:52:39.072Z,0
2017-08-18T00:53:39.111Z,0
2017-08-18T00:54:38.861Z,0
2017-08-18T00:55:38.856Z,0
2017-08-18T00:56:38.933Z,0
2017-08-18T00:57:38.946Z,0
2017-08-18T00:58:38.983Z,0
2017-08-18T00:59:38.999Z,0
2017-08-18T01:00:39.646Z,0
2017-08-18T01:01:39.772Z,0
2017-08-18T01:02:39.093Z,0
2017-08-18T01:03:48.535Z,0
2017-08-18T01:04:40.108Z,0
2017-08-18T01:05:39.843Z,0
2017-08-18T01:06:40.169Z,0
2017-08-18T01:07:40.192Z,0
2017-08-18T01:08:39.929Z,0
2017-08-18T01:09:40.557Z,0
2017-08-18T01:10:40.308Z,0
2017-08-18T01:11:40.053Z,0
2017-08-18T01:12:41.002Z,0
2017-08-18T01:13:41.044Z,0
2017-08-18T01:14:41.094Z,0
2017-08-18T01:15:41.131Z,0
2017-08-18T01:16:40.855Z,0
2017-08-18T01:17:41.513Z,0
2017-08-18T01:18:41.505Z,0
2017-08-18T01:19:41.241Z,0
2017-08-18T01:20:41.583Z,0
2017-08-18T01:21:41.621Z,0
2017-08-18T01:22:41.709Z,0
2017-08-18T01:23:41.411Z,0
2017-08-18T01:24:42.006Z,0
2017-08-18T01:25:41.496Z,0
2017-08-18T01:26:42.142Z,0
2017-08-18T01:27:41.852Z,0
2017-08-18T01:28:42.213Z,0
2017-08-18T01:29:42.256Z,0
2017-08-18T01:30:42.350Z,0
2017-08-18T01:31:42.370Z,0
2017-08-18T01:32:42.360Z,0
2017-08-18T01:33:42.413Z,0
2017-08-18T01:34:42.132Z,0
2017-08-18T01:35:42.793Z,0
2017-08-18T01:36:42.834Z,0
2017-08-18T01:37:42.903Z,0
2017-08-18T01:38:42.908Z,0
2017-08-18T01:39:42.943Z,0
2017-08-18T01:40:42.975Z,0
2017-08-18T01:41:43.011Z,0
2017-08-18T01:42:43.069Z,0
2017-08-18T01:43:43.076Z,0
2017-08-18T01:44:43.131Z,0
2017-08-18T01:45:42.240Z,0
2017-08-18T01:46:42.582Z,0
2017-08-18T01:47:43.536Z,0
2017-08-18T01:48:43.576Z,0
2017-08-18T01:49:42.979Z,0
2017-08-18T01:50:43.640Z,0
2017-08-18T01:51:43.976Z,0
2017-08-18T01:52:44.022Z,0
2017-08-18T01:53:43.726Z,0
2017-08-18T01:54:44.120Z,0
2017-08-18T01:55:44.115Z,0
2017-08-18T01:56:44.148Z,0
2017-08-18T01:57:44.186Z,0
2017-08-18T01:58:44.225Z,0
2017-08-18T01:59:44.256Z,0
2017-08-18T02:00:44.305Z,0
2017-08-18T02:01:44.407Z,0
2017-08-18T02:02:44.056Z,0
2017-08-18T02:03:44.520Z,0
2017-08-18T02:04:44.437Z,0
2017-08-18T02:05:44.494Z,0
2017-08-18T02:06:44.505Z,0
2017-08-18T02:07:44.220Z,0
2017-08-18T02:08:43.987Z,0
2017-08-18T02:09:44.316Z,0
2017-08-18T02:10:45.273Z,0
2017-08-18T02:11:45.299Z,0
2017-08-18T02:12:45.364Z,0
2017-08-18T02:13:45.047Z,0
2017-08-18T02:14:44.778Z,0
2017-08-18T02:15:45.756Z,0
2017-08-18T02:16:45.525Z,0
2017-08-18T02:17:45.523Z,0
2017-08-18T02:18:45.885Z,0
2017-08-18T02:19:45.899Z,0
2017-08-18T02:20:45.934Z,0
2017-08-18T02:21:45.995Z,0
2017-08-18T02:22:46.000Z,0
2017-08-18T02:23:46.067Z,0
2017-08-18T02:24:46.089Z,0
2017-08-18T02:25:45.810Z,0
2017-08-18T02:26:45.844Z,0
2017-08-18T02:27:46.478Z,0
2017-08-18T02:28:46.496Z,0
2017-08-18T02:29:46.525Z,0
2017-08-18T02:30:46.267Z,0
2017-08-18T02:31:46.606Z,0
2017-08-18T02:32:46.637Z,0
2017-08-18T02:33:46.680Z,0
2017-08-18T02:34:46.737Z,0
2017-08-18T02:35:46.743Z,0
2017-08-18T02:36:46.183Z,0
2017-08-18T02:37:46.855Z,0
2017-08-18T02:38:46.718Z,0
2017-08-18T02:39:46.965Z,0
2017-08-18T02:40:46.966Z,0
2017-08-18T02:41:46.993Z,0
2017-08-18T02:42:47.068Z,0
2017-08-18T02:43:46.740Z,0
2017-08-18T02:44:47.400Z,0
2017-08-18T02:45:47.196Z,0
2017-08-18T02:46:46.977Z,0
2017-08-18T02:47:47.228Z,0
2017-08-18T02:48:47.256Z,0
2017-08-18T02:49:47.276Z,0
2017-08-18T02:50:47.369Z,0
2017-08-18T02:51:47.062Z,0
2017-08-18T02:52:47.365Z,0
2017-08-18T02:53:47.424Z,0
2017-08-18T02:54:48.089Z,0
2017-08-18T02:55:47.520Z,0
2017-08-18T02:56:47.858Z,0
2017-08-18T02:57:48.177Z,0
2017-08-18T02:58:48.229Z,0
2017-08-18T02:59:48.285Z,0
2017-08-18T03:00:48.023Z,0
2017-08-18T03:01:48.395Z,0
2017-08-18T03:02:48.479Z,0
2017-08-18T03:03:48.600Z,0
2017-08-18T03:04:48.878Z,0
2017-08-18T03:05:48.929Z,0
2017-08-18T03:06:48.970Z,0
2017-08-18T03:07:48.691Z,0
2017-08-18T03:08:48.734Z,0
2017-08-18T03:09:49.022Z,0
2017-08-18T03:10:49.401Z,0
2017-08-18T03:11:49.426Z,0
2017-08-18T03:12:49.157Z,0
2017-08-18T03:13:49.507Z,0
2017-08-18T03:14:49.538Z,0
2017-08-18T03:15:49.587Z,0
2017-08-18T03:16:49.617Z,0
2017-08-18T03:17:49.330Z,0
2017-08-18T03:18:49.676Z,0
2017-08-18T03:19:49.714Z,0
2017-08-18T03:20:49.747Z,0
2017-08-18T03:21:49.460Z,0
2017-08-18T03:22:49.508Z,0
2017-08-18T03:23:50.146Z,0
2017-08-18T03:24:50.175Z,4
2017-08-18T03:25:49.874Z,4
2017-08-18T03:26:50.531Z,4
2017-08-18T03:27:50.583Z,0
2017-08-18T03:28:50.621Z,4
2017-08-18T03:29:50.328Z,4
2017-08-18T03:30:50.669Z,4
2017-08-18T03:31:50.726Z,8
2017-08-18T03:32:50.739Z,4
2017-08-18T03:33:50.768Z,8
2017-08-18T03:34:50.804Z,8
2017-08-18T03:35:50.881Z,12
2017-08-18T03:36:50.876Z,12
2017-08-18T03:37:50.612Z,16
2017-08-18T03:38:50.972Z,16
2017-08-18T03:39:51.308Z,20
2017-08-18T03:40:51.339Z,20
2017-08-18T03:41:51.071Z,28
2017-08-18T03:42:51.439Z,32
2017-08-18T03:43:51.127Z,32
2017-08-18T03:44:51.166Z,36
2017-08-18T03:45:51.505Z,44
2017-08-18T03:46:51.229Z,44
2017-08-18T03:47:51.583Z,48
2017-08-18T03:48:51.609Z,52
2017-08-18T03:49:51.640Z,60
2017-08-18T03:50:51.379Z,68
2017-08-18T03:51:51.711Z,72
2017-08-18T03:52:51.779Z,80
2017-08-18T03:53:51.793Z,84
2017-08-18T03:54:51.509Z,92
2017-08-18T03:55:52.127Z,100
2017-08-18T03:56:52.175Z,108
2017-08-18T03:57:52.188Z,116
2017-08-18T03:58:52.240Z,124
2017-08-18T03:59:51.985Z,136
2017-08-18T04:00:52.540Z,144
2017-08-18T04:01:52.278Z,156
2017-08-18T04:02:52.723Z,168
2017-08-18T04:03:52.426Z,180
2017-08-18T04:04:52.459Z,192
2017-08-18T04:05:53.097Z,204
2017-08-18T04:06:52.800Z,212
2017-08-18T04:07:53.143Z,220
2017-08-18T04:08:53.188Z,236
2017-08-18T04:09:53.209Z,248
2017-08-18T04:10:52.941Z,256
2017-08-18T04:11:53.336Z,264
2017-08-18T04:12:53.353Z,272
2017-08-18T04:13:53.372Z,284
2017-08-18T04:14:53.417Z,300
2017-08-18T04:15:53.772Z,316
2017-08-18T04:16:53.790Z,336
2017-08-18T04:17:53.820Z,352
2017-08-18T04:18:53.582Z,372
2017-08-18T04:19:53.609Z,392
2017-08-18T04:20:53.927Z,420
2017-08-18T04:21:53.970Z,440
2017-08-18T04:22:53.995Z,468
2017-08-18T04:23:53.705Z,500
2017-08-18T04:24:53.769Z,532
2017-08-18T04:25:54.136Z,560
2017-08-18T04:26:54.165Z,596
2017-08-18T04:27:53.871Z,636
2017-08-18T04:28:54.834Z,688
2017-08-18T04:29:54.557Z,744
2017-08-18T04:30:54.907Z,816
2017-08-18T04:31:54.947Z,920
2017-08-18T04:32:54.950Z,992
2017-08-18T04:33:54.701Z,1044
2017-08-18T04:34:55.678Z,1092
2017-08-18T04:35:55.378Z,1112
2017-08-18T04:36:55.721Z,1128
2017-08-18T04:37:55.761Z,1168
2017-08-18T04:38:55.793Z,1216
2017-08-18T04:39:55.525Z,1244
2017-08-18T04:40:55.876Z,1292
2017-08-18T04:41:55.912Z,1352
2017-08-18T04:42:55.931Z,1412
2017-08-18T04:43:55.988Z,1452
2017-08-18T04:44:56.343Z,1516
2017-08-18T04:45:56.416Z,1572
2017-08-18T04:46:55.828Z,1624
2017-08-18T04:47:56.475Z,1680
2017-08-18T04:48:56.512Z,1740
2017-08-18T04:49:56.236Z,1808
2017-08-18T04:50:56.305Z,1880
2017-08-18T04:51:56.315Z,1940
2017-08-18T04:52:56.686Z,1976
2017-08-18T04:53:57.007Z,1996
2017-08-18T04:54:57.051Z,2000
2017-08-18T04:55:57.078Z,2016
2017-08-18T04:56:57.105Z,2040
2017-08-18T04:57:57.136Z,2060
2017-08-18T04:58:57.175Z,2084
2017-08-18T04:59:57.215Z,2108
2017-08-18T05:00:56.937Z,2116
2017-08-18T05:01:57.370Z,2132
2017-08-18T05:02:57.323Z,2172
2017-08-18T05:03:57.112Z,2228
2017-08-18T05:04:57.101Z,2292
2017-08-18T05:05:56.811Z,2344
2017-08-18T05:06:57.773Z,2372
2017-08-18T05:07:57.538Z,2380
2017-08-18T05:08:57.831Z,2392
2017-08-18T05:09:57.869Z,2412
2017-08-18T05:10:57.936Z,2448
2017-08-18T05:11:57.637Z,2484
2017-08-18T05:12:57.974Z,2580
2017-08-18T05:13:58.013Z,2652
2017-08-18T05:14:57.429Z,2728
2017-08-18T05:15:57.796Z,2804
2017-08-18T05:16:57.793Z,2852
2017-08-18T05:17:58.164Z,2908
2017-08-18T05:18:58.208Z,2972
2017-08-18T05:19:57.895Z,3032
2017-08-18T05:20:58.228Z,3080
2017-08-18T05:21:58.600Z,3112
2017-08-18T05:22:58.634Z,3132
2017-08-18T05:23:59.282Z,3124
2017-08-18T05:24:59.341Z,3128
2017-08-18T05:25:59.370Z,3060
2017-08-18T05:26:59.093Z,3164
2017-08-18T05:27:59.429Z,3040
2017-08-18T05:28:59.168Z,3012
2017-08-18T05:29:59.510Z,2924
2017-08-18T05:30:59.534Z,2996
2017-08-18T05:31:59.585Z,3136
2017-08-18T05:32:59.604Z,3192
2017-08-18T05:33:59.343Z,3156
2017-08-18T05:34:59.698Z,3560
2017-08-18T05:36:00.374Z,3416
2017-08-18T05:36:59.769Z,3732
2017-08-18T05:38:00.118Z,4384
2017-08-18T05:38:59.866Z,3892
2017-08-18T05:40:00.204Z,3916
2017-08-18T05:41:00.548Z,3888
2017-08-18T05:42:00.611Z,3748
2017-08-18T05:43:00.350Z,3632
2017-08-18T05:44:00.970Z,3584
2017-08-18T05:45:01.002Z,3612
2017-08-18T05:46:01.319Z,3528
2017-08-18T05:47:01.382Z,3364
2017-08-18T05:48:01.100Z,3424
2017-08-18T05:49:01.139Z,3556
2017-08-18T05:50:01.577Z,3616
2017-08-18T05:51:01.275Z,3632
2017-08-18T05:52:01.296Z,3612
2017-08-18T05:53:01.672Z,3600
2017-08-18T05:54:01.988Z,3716
2017-08-18T05:55:01.749Z,4088
2017-08-18T05:56:02.139Z,4432
2017-08-18T05:57:01.875Z,4424
2017-08-18T05:58:01.596Z,4232
2017-08-18T05:59:02.210Z,4264
2017-08-18T06:00:02.388Z,4600
2017-08-18T06:01:02.009Z,4900
2017-08-18T06:02:03.513Z,4688
2017-08-18T06:03:02.153Z,4688
2017-08-18T06:04:02.077Z,4412
2017-08-18T06:05:02.397Z,4932
2017-08-18T06:06:03.144Z,4972
2017-08-18T06:07:02.864Z,5488
2017-08-18T06:08:03.263Z,5932
2017-08-18T06:09:03.340Z,6576
2017-08-18T06:10:03.294Z,5216
2017-08-18T06:11:03.327Z,6256
2017-08-18T06:12:03.043Z,6084
2017-08-18T06:13:02.768Z,6012
2017-08-18T06:14:03.993Z,6168
2017-08-18T06:15:03.556Z,7932
2017-08-18T06:16:03.228Z,7108
2017-08-18T06:17:03.627Z,7164
2017-08-18T06:18:03.654Z,7656
2017-08-18T06:19:03.352Z,8040
2017-08-18T06:20:03.912Z,8296
2017-08-18T06:21:04.035Z,8892
2017-08-18T06:22:03.789Z,8396
2017-08-18T06:23:04.758Z,8748
2017-08-18T06:24:04.730Z,8588
2017-08-18T06:25:04.990Z,8904
2017-08-18T06:26:04.818Z,8932
2017-08-18T06:27:04.849Z,9020
2017-08-18T06:28:04.577Z,8952
2017-08-18T06:29:05.301Z,8980
2017-08-18T06:30:04.981Z,9012
2017-08-18T06:31:05.598Z,8912
2017-08-18T06:32:05.785Z,9076
2017-08-18T06:33:05.614Z,8916
2017-08-18T06:34:05.817Z,9164
2017-08-18T06:35:05.498Z,9012
2017-08-18T06:36:05.490Z,8820
2017-08-18T06:37:06.165Z,8912
2017-08-18T06:38:06.291Z,9144
2017-08-18T06:39:05.963Z,9148
2017-08-18T06:40:05.354Z,8944
2017-08-18T06:41:06.380Z,8804
2017-08-18T06:42:06.501Z,8732
2017-08-18T06:43:06.583Z,8744
2017-08-18T06:44:06.692Z,8832
2017-08-18T06:45:07.078Z,8960
2017-08-18T06:46:06.529Z,8872
2017-08-18T06:47:06.271Z,8992
2017-08-18T06:48:06.600Z,9140
2017-08-18T06:49:06.666Z,9396
2017-08-18T06:50:07.073Z,9720
2017-08-18T06:51:06.773Z,10060
2017-08-18T06:52:06.453Z,10352
2017-08-18T06:53:06.493Z,9212
2017-08-18T06:54:06.625Z,10768
2017-08-18T06:55:06.992Z,11456
2017-08-18T06:56:06.951Z,12304
2017-08-18T06:57:06.689Z,13056
2017-08-18T06:58:06.712Z,11080
2017-08-18T06:59:07.089Z,10720
2017-08-18T07:00:06.626Z,12332
2017-08-18T07:01:07.641Z,11808
2017-08-18T07:02:07.640Z,12300
2017-08-18T07:03:07.666Z,11824
2017-08-18T07:04:07.723Z,11828
2017-08-18T07:05:07.464Z,11924
2017-08-18T07:06:07.527Z,11732
2017-08-18T07:07:07.571Z,11632
2017-08-18T07:08:07.742Z,11568
2017-08-18T07:09:08.111Z,12076
2017-08-18T07:10:07.568Z,11996
2017-08-18T07:11:07.612Z,12256
2017-08-18T07:12:08.642Z,11832
2017-08-18T07:13:08.752Z,12280
2017-08-18T07:14:08.469Z,13452
2017-08-18T07:15:08.101Z,15136
2017-08-18T07:16:08.550Z,14152
2017-08-18T07:17:08.591Z,15520
2017-08-18T07:18:08.652Z,18368
2017-08-18T07:19:08.974Z,19136
2017-08-18T07:20:09.045Z,17920
2017-08-18T07:21:09.001Z,16032
2017-08-18T07:22:08.740Z,12832
2017-08-18T07:23:09.135Z,12600
2017-08-18T07:24:09.125Z,12188
2017-08-18T07:25:09.218Z,11576
2017-08-18T07:26:09.203Z,12240
2017-08-18T07:27:09.279Z,11420
2017-08-18T07:28:09.296Z,11052
2017-08-18T07:29:09.328Z,12168
2017-08-18T07:30:08.861Z,15036
2017-08-18T07:31:09.802Z,15840
2017-08-18T07:32:09.867Z,22400
2017-08-18T07:33:09.639Z,19168
2017-08-18T07:34:09.945Z,18816
2017-08-18T07:35:09.986Z,20992
2017-08-18T07:36:10.037Z,17376
2017-08-18T07:37:09.744Z,17760
2017-08-18T07:38:10.144Z,17056
2017-08-18T07:39:10.186Z,13592
2017-08-18T07:40:09.892Z,12084
2017-08-18T07:41:09.966Z,12016
2017-08-18T07:42:10.599Z,11348
2017-08-18T07:43:10.076Z,11236
2017-08-18T07:44:11.037Z,11020
2017-08-18T07:45:11.479Z,10992
2017-08-18T07:46:11.551Z,11424
2017-08-18T07:47:10.937Z,11524
2017-08-18T07:48:11.269Z,13840
2017-08-18T07:49:11.785Z,12944
2017-08-18T07:50:12.225Z,12072
2017-08-18T07:51:11.936Z,11532
2017-08-18T07:52:12.894Z,11220
2017-08-18T07:53:12.934Z,11132
2017-08-18T07:54:12.371Z,11404
2017-08-18T07:55:12.723Z,11888
2017-08-18T07:56:12.823Z,11768
2017-08-18T07:57:13.492Z,11812
2017-08-18T07:58:13.239Z,11596
2017-08-18T07:59:13.556Z,11232
2017-08-18T08:00:14.225Z,10968
2017-08-18T08:01:14.314Z,11168
2017-08-18T08:02:14.303Z,11696
2017-08-18T08:03:14.061Z,11892
2017-08-18T08:04:13.800Z,12028
2017-08-18T08:05:14.159Z,12296
2017-08-18T08:06:14.827Z,12176
2017-08-18T08:07:14.909Z,11744
2017-08-18T08:08:14.612Z,11636
2017-08-18T08:09:15.276Z,11356
2017-08-18T08:10:15.334Z,11360
2017-08-18T08:11:15.355Z,11740
2017-08-18T08:12:15.113Z,11728
2017-08-18T08:13:15.446Z,12480
2017-08-18T08:14:15.181Z,12948
2017-08-18T08:15:15.523Z,12176
2017-08-18T08:16:15.556Z,11460
2017-08-18T08:17:15.317Z,11256
2017-08-18T08:18:15.334Z,11192
2017-08-18T08:19:16.049Z,11472
2017-08-18T08:20:15.456Z,11556
2017-08-18T08:21:15.801Z,11664
2017-08-18T08:22:15.883Z,11940
2017-08-18T08:23:15.898Z,12108
2017-08-18T08:24:16.046Z,11836
2017-08-18T08:25:16.086Z,12028
2017-08-18T08:26:16.146Z,12460
2017-08-18T08:27:16.167Z,12764
2017-08-18T08:28:16.234Z,12948
2017-08-18T08:29:17.218Z,12848
2017-08-18T08:30:17.240Z,13316
2017-08-18T08:31:17.347Z,13412
2017-08-18T08:32:16.706Z,13776
2017-08-18T08:33:17.372Z,14288
2017-08-18T08:34:17.094Z,14432
2017-08-18T08:35:18.134Z,14540
2017-08-18T08:36:18.160Z,14148
2017-08-18T08:37:17.884Z,14116
2017-08-18T08:38:17.990Z,14332
2017-08-18T08:39:18.355Z,13172
2017-08-18T08:40:18.088Z,13468
2017-08-18T08:41:18.453Z,14860
2017-08-18T08:42:18.187Z,17504
2017-08-18T08:43:18.820Z,16320
2017-08-18T08:44:18.572Z,16672
2017-08-18T08:45:18.574Z,16896
2017-08-18T08:46:18.074Z,16864
2017-08-18T08:47:18.980Z,17376
2017-08-18T08:48:18.695Z,18144
2017-08-18T08:49:18.485Z,19168
2017-08-18T08:50:18.876Z,19360
2017-08-18T08:51:19.215Z,17632
2017-08-18T08:52:19.230Z,17280
2017-08-18T08:53:19.543Z,16736
2017-08-18T08:54:19.012Z,16192
2017-08-18T08:55:19.678Z,17248
2017-08-18T08:56:19.418Z,17408
2017-08-18T08:57:19.505Z,18720
2017-08-18T08:58:19.475Z,17184
2017-08-18T08:59:19.882Z,15808
2017-08-18T09:00:19.591Z,15808
2017-08-18T09:01:19.971Z,14640
2017-08-18T09:02:20.295Z,13784
2017-08-18T09:03:19.746Z,13884
2017-08-18T09:04:20.052Z,15520
2017-08-18T09:05:19.801Z,15616
2017-08-18T09:06:19.877Z,18848
2017-08-18T09:07:20.540Z,21760
2017-08-18T09:08:20.585Z,17152
2017-08-18T09:09:20.624Z,17920
2017-08-18T09:10:20.238Z,18048
2017-08-18T09:11:20.655Z,18272
2017-08-18T09:12:20.649Z,16992
2017-08-18T09:13:21.009Z,17792
2017-08-18T09:14:21.045Z,19488
2017-08-18T09:15:21.396Z,19840
2017-08-18T09:16:21.157Z,20768
2017-08-18T09:17:21.182Z,19904
2017-08-18T09:18:21.231Z,20800
2017-08-18T09:19:21.277Z,20608
2017-08-18T09:20:21.357Z,20384
2017-08-18T09:21:21.709Z,19328
2017-08-18T09:22:21.777Z,19296
2017-08-18T09:23:22.469Z,19264
2017-08-18T09:24:22.161Z,19136
2017-08-18T09:25:22.752Z,19360
2017-08-18T09:26:23.123Z,19776
2017-08-18T09:27:23.482Z,21216
2017-08-18T09:28:23.889Z,20704
2017-08-18T09:29:23.575Z,19392
2017-08-18T09:30:23.721Z,18272
2017-08-18T09:31:24.415Z,19744
2017-08-18T09:32:24.733Z,22016
2017-08-18T09:33:24.578Z,22464
2017-08-18T09:34:24.830Z,20416
2017-08-18T09:35:24.831Z,18464
2017-08-18T09:36:24.638Z,19744
2017-08-18T09:37:24.964Z,22304
2017-08-18T09:38:24.766Z,25952
2017-08-18T09:39:25.450Z,13796
2017-08-18T09:40:25.516Z,12664
2017-08-18T09:41:25.199Z,33216
2017-08-18T09:42:25.355Z,33088
2017-08-18T09:43:26.075Z,26400
2017-08-18T09:44:25.740Z,10632
2017-08-18T09:45:26.134Z,13940
2017-08-18T09:46:26.169Z,16544
2017-08-18T09:47:26.224Z,11868
2017-08-18T09:48:26.547Z,9692
2017-08-18T09:49:26.653Z,7492
2017-08-18T09:50:26.675Z,7804
2017-08-18T09:51:26.392Z,9116
2017-08-18T09:52:27.106Z,17664
2017-08-18T09:53:26.886Z,12948
2017-08-18T09:54:27.175Z,11540
2017-08-18T09:55:26.643Z,10300
2017-08-18T09:56:26.965Z,8848
2017-08-18T09:57:27.003Z,7684
2017-08-18T09:58:27.402Z,11620
2017-08-18T09:59:27.384Z,14108
2017-08-18T10:00:27.447Z,16032
2017-08-18T10:01:27.533Z,14688
2017-08-18T10:02:27.558Z,13696
2017-08-18T10:03:27.961Z,13324
2017-08-18T10:04:27.680Z,12032
2017-08-18T10:05:28.332Z,10896
2017-08-18T10:06:28.399Z,22848
2017-08-18T10:07:28.433Z,34912
2017-08-18T10:08:28.466Z,31616
2017-08-18T10:09:28.201Z,37376
2017-08-18T10:10:28.292Z,42112
2017-08-18T10:11:28.294Z,34624
2017-08-18T10:12:28.329Z,28064
2017-08-18T10:13:29.013Z,28640
2017-08-18T10:14:28.701Z,30144
2017-08-18T10:15:29.143Z,28320
2017-08-18T10:16:28.838Z,28320
2017-08-18T10:17:28.896Z,27296
2017-08-18T10:18:29.011Z,30976
2017-08-18T10:19:28.692Z,36800
2017-08-18T10:20:29.694Z,38944
2017-08-18T10:21:29.124Z,37184
2017-08-18T10:22:30.063Z,32480
2017-08-18T10:23:30.111Z,30592
2017-08-18T10:24:30.136Z,26816
2017-08-18T10:25:30.182Z,27008
2017-08-18T10:26:29.634Z,22688
2017-08-18T10:27:30.262Z,18112
2017-08-18T10:28:30.062Z,15248
2017-08-18T10:29:30.071Z,13292
2017-08-18T10:30:30.487Z,13100
2017-08-18T10:31:30.182Z,12140
2017-08-18T10:32:30.261Z,11240
2017-08-18T10:33:31.240Z,10996
2017-08-18T10:34:31.003Z,10148
2017-08-18T10:35:31.025Z,10008
2017-08-18T10:36:31.379Z,9136
2017-08-18T10:37:31.428Z,9312
2017-08-18T10:38:31.181Z,11896
2017-08-18T10:39:31.849Z,12884
2017-08-18T10:40:31.262Z,12672
2017-08-18T10:41:31.926Z,12208
2017-08-18T10:42:31.971Z,12220
2017-08-18T10:43:32.040Z,12908
2017-08-18T10:44:32.094Z,12940
2017-08-18T10:45:32.419Z,13488
2017-08-18T10:46:32.466Z,12756
2017-08-18T10:47:32.816Z,13404
2017-08-18T10:48:33.108Z,15088
2017-08-18T10:49:32.978Z,15740
2017-08-18T10:50:32.355Z,14476
2017-08-18T10:51:33.015Z,12992
2017-08-18T10:52:32.786Z,12076
2017-08-18T10:53:32.788Z,12240
2017-08-18T10:54:32.829Z,12072
2017-08-18T10:55:33.200Z,12104
2017-08-18T10:56:34.167Z,11480
2017-08-18T10:57:34.210Z,11736
2017-08-18T10:58:34.251Z,11764
2017-08-18T10:59:33.986Z,11848
2017-08-18T11:00:34.336Z,11596
2017-08-18T11:01:33.858Z,12020
2017-08-18T11:02:34.878Z,12372
2017-08-18T11:03:35.291Z,12416
2017-08-18T11:04:34.951Z,12496
2017-08-18T11:05:34.967Z,12620
2017-08-18T11:06:34.382Z,12548
2017-08-18T11:07:34.762Z,12436
2017-08-18T11:08:35.118Z,12084
2017-08-18T11:09:35.470Z,11544
2017-08-18T11:10:35.204Z,11172
2017-08-18T11:11:35.229Z,11088
2017-08-18T11:12:35.274Z,11076
2017-08-18T11:13:34.716Z,10824
2017-08-18T11:14:35.705Z,10524
2017-08-18T11:15:35.797Z,10148
2017-08-18T11:16:35.164Z,9712
2017-08-18T11:17:35.491Z,9276
2017-08-18T11:18:36.172Z,8816
2017-08-18T11:19:36.236Z,8276
2017-08-18T11:20:35.943Z,7780
2017-08-18T11:21:36.305Z,7436
2017-08-18T11:22:36.022Z,7148
2017-08-18T11:23:36.677Z,6944
2017-08-18T11:24:36.412Z,6736
2017-08-18T11:25:36.763Z,6556
2017-08-18T11:26:37.088Z,6520
2017-08-18T11:27:37.129Z,6756
2017-08-18T11:28:36.845Z,6872
2017-08-18T11:29:36.920Z,7016
2017-08-18T11:30:37.258Z,7040
2017-08-18T11:31:37.286Z,6888
2017-08-18T11:32:37.371Z,7028
2017-08-18T11:33:37.468Z,6932
2017-08-18T11:34:37.433Z,6740
2017-08-18T11:35:37.468Z,6720
2017-08-18T11:36:37.534Z,6600
2017-08-18T11:37:37.275Z,6584
2017-08-18T11:38:38.055Z,6688
2017-08-18T11:39:37.669Z,6524
2017-08-18T11:40:38.011Z,6444
2017-08-18T11:41:38.374Z,6444
2017-08-18T11:42:38.114Z,6260
2017-08-18T11:43:38.439Z,6148
2017-08-18T11:44:37.868Z,6164
2017-08-18T11:45:38.195Z,6152
2017-08-18T11:46:39.180Z,6132
2017-08-18T11:47:39.214Z,6124
2017-08-18T11:48:38.924Z,6124
2017-08-18T11:49:39.452Z,6016
2017-08-18T11:50:39.627Z,5944
2017-08-18T11:51:39.671Z,5904
2017-08-18T11:52:39.369Z,5744
2017-08-18T11:53:39.476Z,5612
2017-08-18T11:54:39.465Z,5604
2017-08-18T11:55:39.832Z,5496
2017-08-18T11:56:39.883Z,5396
2017-08-18T11:57:39.623Z,5332
2017-08-18T11:58:40.277Z,5512
2017-08-18T11:59:40.629Z,5852
2017-08-18T12:00:40.354Z,6232
2017-08-18T12:01:41.840Z,6568
2017-08-18T12:02:40.874Z,6752
2017-08-18T12:03:41.240Z,6844
2017-08-18T12:04:41.563Z,7036
2017-08-18T12:05:41.341Z,7376
2017-08-18T12:06:41.990Z,7540
2017-08-18T12:07:42.057Z,7728
2017-08-18T12:08:42.051Z,7944
2017-08-18T12:09:42.117Z,7952
2017-08-18T12:10:42.143Z,7924
2017-08-18T12:11:42.434Z,7928
2017-08-18T12:12:42.332Z,7808
2017-08-18T12:13:42.702Z,7532
2017-08-18T12:14:42.436Z,7192
2017-08-18T12:15:42.799Z,6980
2017-08-18T12:16:42.492Z,6888
2017-08-18T12:17:43.148Z,6864
2017-08-18T12:18:42.889Z,6832
2017-08-18T12:19:43.337Z,6792
2017-08-18T12:20:43.650Z,6756
2017-08-18T12:21:44.031Z,6600
2017-08-18T12:22:44.054Z,6280
2017-08-18T12:23:43.790Z,5868
2017-08-18T12:24:44.136Z,5668
2017-08-18T12:25:44.838Z,5456
2017-08-18T12:26:44.652Z,5228
2017-08-18T12:27:45.586Z,5052
2017-08-18T12:28:44.957Z,4908
2017-08-18T12:29:45.533Z,4936
2017-08-18T12:30:44.537Z,5016
2017-08-18T12:31:44.788Z,5052
2017-08-18T12:32:45.167Z,4976
2017-08-18T12:33:45.481Z,4916
2017-08-18T12:34:45.254Z,4784
2017-08-18T12:35:45.317Z,4584
2017-08-18T12:36:45.309Z,4408
2017-08-18T12:37:45.066Z,4252
2017-08-18T12:38:45.617Z,4096
2017-08-18T12:39:45.988Z,4036
2017-08-18T12:40:46.246Z,4068
2017-08-18T12:41:45.550Z,4156
2017-08-18T12:42:45.813Z,4276
2017-08-18T12:43:45.894Z,4636
2017-08-18T12:44:45.915Z,4900
2017-08-18T12:45:46.153Z,5140
2017-08-18T12:46:45.671Z,5236
2017-08-18T12:47:46.681Z,5304
2017-08-18T12:48:45.826Z,5640
2017-08-18T12:49:46.768Z,5996
2017-08-18T12:50:46.482Z,6176
2017-08-18T12:51:46.293Z,6392
2017-08-18T12:52:47.353Z,6836
2017-08-18T12:53:47.601Z,6692
2017-08-18T12:54:46.711Z,6320
2017-08-18T12:55:47.409Z,6084
2017-08-18T12:56:47.440Z,5672
2017-08-18T12:57:47.769Z,6084
2017-08-18T12:58:47.510Z,6856
2017-08-18T12:59:47.254Z,7020
2017-08-18T13:00:47.608Z,6792
2017-08-18T13:01:52.508Z,7572
2017-08-18T13:02:48.025Z,8080
2017-08-18T13:03:48.239Z,8608
2017-08-18T13:04:48.112Z,9224
2017-08-18T13:05:47.485Z,9660
2017-08-18T13:06:48.176Z,9796
2017-08-18T13:07:48.426Z,9852
2017-08-18T13:08:48.405Z,10244
2017-08-18T13:09:48.370Z,10504
2017-08-18T13:10:47.992Z,10580
2017-08-18T13:11:48.114Z,10232
2017-08-18T13:12:48.137Z,10076
2017-08-18T13:13:48.741Z,9484
2017-08-18T13:14:48.507Z,8824
2017-08-18T13:15:48.224Z,8188
2017-08-18T13:16:48.661Z,7708
2017-08-18T13:17:48.605Z,7428
2017-08-18T13:18:48.330Z,7116
2017-08-18T13:19:48.825Z,6804
2017-08-18T13:20:49.111Z,6664
2017-08-18T13:21:48.862Z,6680
2017-08-18T13:22:48.573Z,6936
2017-08-18T13:23:48.623Z,7544
2017-08-18T13:24:50.359Z,8104
2017-08-18T13:25:49.323Z,8596
2017-08-18T13:26:49.721Z,9060
2017-08-18T13:27:50.009Z,8988
2017-08-18T13:28:50.084Z,8788
2017-08-18T13:29:49.528Z,8252
2017-08-18T13:30:50.193Z,7908
2017-08-18T13:31:50.017Z,7632
2017-08-18T13:32:50.021Z,7836
2017-08-18T13:33:51.332Z,8044
2017-08-18T13:34:50.766Z,7968